Mobile, AL

4:29 PM CST on January 22, 2017 (GMT -0600)
Canterbury | | Change Station
Active Advisory: Small Craft Advisory

Elev 105 ft 30.62 °N, 88.19 °W | Updated 0 second ago

Partly Cloudy
Partly Cloudy
64.3 °F
Feels Like 64.3 °F
N
2.0
Wind Variable Wind from NNW
Gusts 12.0 mph

Today
High -- | Low -- °F
--% Chance of Precip.
Yesterday
High -- | Low -- °F
Precip. -- in
Pressure 29.39 in
Visibility 10.0 miles
Clouds Few 7000 ft
Scattered Clouds 10000 ft
Mostly Cloudy 20000 ft
Dew Point 45 °F
Humidity 49%
Rainfall 0.14 in
Snow Depth Not available.
6:48 AM 5:20 PM
Waning Crescent, 23% visible
METAR KMOB 222156Z COR 26008KT 10SM FEW070 SCT100 BKN200 18/06 A2939 RMK AO2 SLP950 T01830061
Pressure 29.39 in
Visibility 10.0 miles
Clouds Few 7000 ft
Scattered Clouds 10000 ft
Mostly Cloudy 20000 ft
Dew Point 45 °F
Humidity 49%
Rainfall 0.14 in
Snow Depth Not available.
6:48 AM 5:20 PM
Waning Crescent, 23% visible
METAR KMOB 222156Z COR 26008KT 10SM FEW070 SCT100 BKN200 18/06 A2939 RMK AO2 SLP950 T01830061

Get Your Daily Forecast Email!

Thanks for signing up!

Be on the lookout for a verification email in your inbox.

You'll start receiving the daily forecast at 8 AM.

×

10-Day Weather Forecast

Almanac

Astronomy

Jan. 22, 2017 Rise Set
Actual Time
Civil Twilight
Nautical Twilight
Astronomical Twilight
Moon
Length of Visible Light
Length of Day
Tomorrow will be .
, % of the Moon is Illuminated

Today's Extremes

State Highs State Lows

Community

WunderPhotos

Upload Photos

1,962,540 photos uploaded!

WunderBlog® & News

Nearby

Air Quality

  Air Quality AQ Index Pollutant
Not available.

Snow Depth

Station Depth Elevation

Earthquake Activity

City Distance Mag. Time & Date
Minimum magnitude displayed is 2.5.

Coastal Water Temperatures

Place Temperature

Stations

Nearby Weather Stations

Station Location Temp. Windchill Dew Point Humidity Wind Precip. Elev Updated Type
                   

Watches & Warnings

Small Craft Advisory
Issued: 3:38 PM CST Jan. 22, 2017 – National Weather Service

... Small Craft Advisory now in effect until 6 PM CST Monday...

* winds... west around 25 knots becoming northwest with frequent
higher gusts likely.

* Waves... rough.

Precautionary/preparedness actions...

A Small Craft Advisory means that wind speeds or frequent gusts
of 20 to 33 knots and/or seas of 7 feet or higher are expected to
produce hazardous wave conditions to small craft. Inexperienced
mariners... especially those operating smaller vessels should
avoid navigating in these conditions.

Additional statements will be issued as conditions warrant.